Time;durP1;ratioP1;P1;durP2;ratioP2;P2;SDS_P1;SDS_P2;PMS_P1;PMS_P2;Temp;Humidity;BMP_temperature;BMP_pressure;BME280_temperature;BME280_humidity;BME280_pressure;Samples;Min_cycle;Max_cycle;Signal;HPM_P1;HPM_P2
2022/10/27 00:00:17;;;;;;;;;;;;;;;;;;5037692;28;8393;-84
2022/10/27 00:02:43;;;;;;;;;;;;;;;;;;5038386;28;8444;-85
2022/10/27 00:05:09;;;;;;;;;;;;;;;;;;5038614;28;7377;-85
2022/10/27 00:07:35;;;;;;;;;;;;;;;;;;5037693;28;7197;-86
2022/10/27 00:10:00;;;;;;;;;;;;;;;;;;5038082;28;8446;-86
2022/10/27 00:12:28;;;;;;;;;;;;;;;;;;5037878;28;7049;-86
2022/10/27 00:14:53;;;;;;;;;;;;;;;;;;5037720;28;8434;-85
2022/10/27 00:17:19;;;;;;;;;;;;;;;;;;5037509;28;8411;-85
2022/10/27 00:19:44;;;;;;;;;;;;;;;;;;5037822;28;8719;-86
2022/10/27 00:22:10;;;;;;;;;;;;;;;;;;5037543;28;8793;-85
2022/10/27 00:24:35;;;;;;;;;;;;;;;;;;5037538;28;8550;-85
2022/10/27 00:27:01;;;;;;;;;;;;;;;;;;5037106;28;8275;-85
2022/10/27 00:29:26;;;;;;;;;;;;;;;;;;5037351;28;8569;-85
2022/10/27 00:31:52;;;;;;;;;;;;;;;;;;5037800;28;7145;-85
2022/10/27 00:34:17;;;;;;;;;;;;;;;;;;5018862;28;7110;-86
2022/10/27 00:36:42;;;;;;;;;;;;;;;;;;5017525;28;8423;-87
2022/10/27 00:39:08;;;;;;;;;;;;;;;;;;5017713;28;8570;-88
2022/10/27 00:41:35;;;;;;;;;;;;;;;;;;5019461;28;8451;-85
2022/10/27 00:44:20;;;;;;;;;;;;;;;;;;5018041;28;8493;-85
2022/10/27 00:46:47;;;;;;;;;;;;;;;;;;5017778;28;8472;-85
2022/10/27 00:49:14;;;;;;;;;;;;;;;;;;5017104;28;8417;-85
2022/10/27 00:51:44;;;;;;;;;;;;;;;;;;5017326;28;7154;-84
2022/10/27 00:54:12;;;;;;;;;;;;;;;;;;5017297;28;8370;-85
2022/10/27 00:56:38;;;;;;;;;;;;;;;;;;5016989;28;7122;-84
2022/10/27 00:59:04;;;;;;;;;;;;;;;;;;5016911;28;9310;-84
2022/10/27 01:01:30;;;;;;;;;;;;;;;;;;5017364;28;7383;-85
2022/10/27 01:03:56;;;;;;;;;;;;;;;;;;5017721;28;7038;-85
2022/10/27 01:06:23;;;;;;;;;;;;;;;;;;5017235;28;7030;-85
2022/10/27 01:08:49;;;;;;;;;;;;;;;;;;5017009;28;7235;-86
2022/10/27 01:11:15;;;;;;;;;;;;;;;;;;5017512;28;6816;-84
2022/10/27 01:13:40;;;;;;;;;;;;;;;;;;5033524;28;8737;-85
2022/10/27 01:16:26;;;;;;;;;;;;;;;;;;5017217;28;8386;-85
2022/10/27 01:18:55;;;;;;;;;;;;;;;;;;5017161;28;8439;-85
2022/10/27 01:21:26;;;;;;;;;;;;;;;;;;5016987;28;8412;-84
2022/10/27 01:23:51;;;;;;;;;;;;;;;;;;5017780;28;8502;-84
2022/10/27 01:26:20;;;;;;;;;;;;;;;;;;5016818;28;8896;-87
2022/10/27 01:29:03;;;;;;;;;;;;;;;;;;5016732;28;7048;-87
2022/10/27 01:31:32;;;;;;;;;;;;;;;;;;5016960;28;8495;-86
2022/10/27 01:33:57;;;;;;;;;;;;;;;;;;5018096;28;7048;-86
2022/10/27 01:36:29;;;;;;;;;;;;;;;;;;5017074;28;8386;-86
2022/10/27 01:38:59;;;;;;;;;;;;;;;;;;5017115;28;8395;-87
2022/10/27 01:41:31;;;;;;;;;;;;;;;;;;5016704;28;8594;-86
2022/10/27 01:44:01;;;;;;;;;;;;;;;;;;5017551;28;8700;-86
2022/10/27 01:46:27;;;;;;;;;;;;;;;;;;5016640;28;8625;-83
2022/10/27 01:48:53;;;;;;;;;;;;;;;;;;5016808;28;8743;-83
2022/10/27 01:51:19;;;;;;;;;;;;;;;;;;5017606;28;7217;-84
2022/10/27 01:53:47;;;;;;;;;;;;;;;;;;5016911;28;8390;-86
2022/10/27 01:56:12;;;;;;;;;;;;;;;;;;5022566;28;8405;-87
2022/10/27 01:58:44;;;;;;;;;;;;;;;;;;5032868;28;7016;-87
2022/10/27 02:01:09;;;;;;;;;;;;;;;;;;5036783;28;8325;-87
2022/10/27 02:03:58;;;;;;;;;;;;;;;;;;5036786;28;8414;-88
2022/10/27 02:06:33;;;;;;;;;;;;;;;;;;4991472;28;8501;-87
2022/10/27 02:09:04;;;;;;;;;;;;;;;;;;5036496;28;7066;-86
2022/10/27 02:11:34;;;;;;;;;;;;;;;;;;5036958;28;8103;-86
2022/10/27 02:13:59;;;;;;;;;;;;;;;;;;5036969;28;8770;-85
2022/10/27 02:16:32;;;;;;;;;;;;;;;;;;5036537;28;7010;-85
2022/10/27 02:19:06;;;;;;;;;;;;;;;;;;5036880;28;8406;-85
2022/10/27 02:21:34;;;;;;;;;;;;;;;;;;5036524;28;8466;-86
2022/10/27 02:23:59;;;;;;;;;;;;;;;;;;5036477;28;7400;-87
2022/10/27 02:26:32;;;;;;;;;;;;;;;;;;5036672;28;8411;-86
2022/10/27 02:29:12;;;;;;;;;;;;;;;;;;5036591;28;7125;-84
2022/10/27 02:31:42;;;;;;;;;;;;;;;;;;5036428;28;8700;-86
2022/10/27 02:34:09;;;;;;;;;;;;;;;;;;5036452;28;7218;-85
2022/10/27 02:36:35;;;;;;;;;;;;;;;;;;5036161;28;8467;-86
2022/10/27 02:39:01;;;;;;;;;;;;;;;;;;5035967;28;8389;-85
2022/10/27 02:41:26;;;;;;;;;;;;;;;;;;5036509;28;8333;-85
2022/10/27 02:43:52;;;;;;;;;;;;;;;;;;5036621;28;8280;-85
2022/10/27 02:46:17;;;;;;;;;;;;;;;;;;5036143;28;8395;-85
2022/10/27 02:48:43;;;;;;;;;;;;;;;;;;5036022;28;8391;-85
2022/10/27 02:51:08;;;;;;;;;;;;;;;;;;5035629;28;8302;-84
2022/10/27 02:53:34;;;;;;;;;;;;;;;;;;5036020;28;7011;-85
2022/10/27 02:55:59;;;;;;;;;;;;;;;;;;5036009;28;8622;-85
2022/10/27 02:58:25;;;;;;;;;;;;;;;;;;5035510;28;8320;-85
2022/10/27 03:00:54;;;;;;;;;;;;;;;;;;5035644;28;8356;-87
2022/10/27 03:03:20;;;;;;;;;;;;;;;;;;5035719;28;7437;-85
2022/10/27 03:05:46;;;;;;;;;;;;;;;;;;5035779;28;8640;-85
2022/10/27 03:08:11;;;;;;;;;;;;;;;;;;5035759;28;8312;-84
2022/10/27 03:10:37;;;;;;;;;;;;;;;;;;5035056;28;6822;-85
2022/10/27 03:13:03;;;;;;;;;;;;;;;;;;5035576;28;8326;-85
2022/10/27 03:15:28;;;;;;;;;;;;;;;;;;5036321;28;8840;-85
2022/10/27 03:17:53;;;;;;;;;;;;;;;;;;5035875;28;7232;-85
2022/10/27 03:20:19;;;;;;;;;;;;;;;;;;5035666;28;8439;-85
2022/10/27 03:22:45;;;;;;;;;;;;;;;;;;5035402;28;8679;-85
2022/10/27 03:25:13;;;;;;;;;;;;;;;;;;5035887;28;7009;-85
2022/10/27 03:27:40;;;;;;;;;;;;;;;;;;5018800;28;8828;-85
2022/10/27 03:30:07;;;;;;;;;;;;;;;;;;5018540;28;8516;-85
2022/10/27 03:32:32;;;;;;;;;;;;;;;;;;5018584;28;8675;-85
2022/10/27 03:34:57;;;;;;;;;;;;;;;;;;5018339;28;7144;-85
2022/10/27 03:37:23;;;;;;;;;;;;;;;;;;5018799;28;8481;-85
2022/10/27 03:39:48;;;;;;;;;;;;;;;;;;5018749;28;9358;-85
2022/10/27 03:42:14;;;;;;;;;;;;;;;;;;5018345;28;8456;-86
2022/10/27 03:44:39;;;;;;;;;;;;;;;;;;5018376;28;8686;-85
2022/10/27 03:47:05;;;;;;;;;;;;;;;;;;5018320;28;7049;-87
2022/10/27 03:49:30;;;;;;;;;;;;;;;;;;5018725;28;8306;-82
2022/10/27 03:51:56;;;;;;;;;;;;;;;;;;5018306;28;8560;-84
2022/10/27 03:54:21;;;;;;;;;;;;;;;;;;5018157;28;8534;-84
2022/10/27 03:56:47;;;;;;;;;;;;;;;;;;5017662;28;8858;-85
2022/10/27 03:59:12;;;;;;;;;;;;;;;;;;5018041;28;8437;-84
2022/10/27 04:01:38;;;;;;;;;;;;;;;;;;5018182;28;8387;-86
2022/10/27 04:04:03;;;;;;;;;;;;;;;;;;5018514;28;8444;-85
2022/10/27 04:06:30;;;;;;;;;;;;;;;;;;5018467;28;8366;-87
2022/10/27 04:08:55;;;;;;;;;;;;;;;;;;5018114;28;8379;-85
2022/10/27 04:11:21;;;;;;;;;;;;;;;;;;5018151;28;7190;-86
2022/10/27 04:13:46;;;;;;;;;;;;;;;;;;5018237;28;8382;-85
2022/10/27 04:16:12;;;;;;;;;;;;;;;;;;5018119;28;8392;-85
2022/10/27 04:18:37;;;;;;;;;;;;;;;;;;5004257;28;7008;-83
2022/10/27 04:21:04;;;;;;;;;;;;;;;;;;5014726;28;8437;-83
2022/10/27 04:23:29;;;;;;;;;;;;;;;;;;5013612;28;7149;-84
2022/10/27 04:25:55;;;;;;;;;;;;;;;;;;5014329;28;7213;-83
2022/10/27 04:28:21;;;;;;;;;;;;;;;;;;5014722;28;8465;-84
2022/10/27 04:30:46;;;;;;;;;;;;;;;;;;5014814;28;9331;-81
2022/10/27 04:33:12;;;;;;;;;;;;;;;;;;5014195;28;8362;-81
2022/10/27 04:35:38;;;;;;;;;;;;;;;;;;5014043;28;9363;-86
2022/10/27 04:38:04;;;;;;;;;;;;;;;;;;5014560;28;8715;-86
2022/10/27 04:40:29;;;;;;;;;;;;;;;;;;5015010;28;8519;-85
2022/10/27 04:42:55;;;;;;;;;;;;;;;;;;5014354;28;8465;-86
2022/10/27 04:45:20;;;;;;;;;;;;;;;;;;5014823;28;8489;-84
2022/10/27 04:47:45;;;;;;;;;;;;;;;;;;5017216;28;8481;-87
2022/10/27 04:50:12;;;;;;;;;;;;;;;;;;5016817;28;8545;-86
2022/10/27 04:52:37;;;;;;;;;;;;;;;;;;5017331;28;7124;-87
2022/10/27 04:55:03;;;;;;;;;;;;;;;;;;5017445;28;8407;-84
2022/10/27 04:57:28;;;;;;;;;;;;;;;;;;5036942;28;7146;-85
2022/10/27 04:59:53;;;;;;;;;;;;;;;;;;5036646;28;8383;-85
2022/10/27 05:02:19;;;;;;;;;;;;;;;;;;5036577;28;8411;-85
2022/10/27 05:04:44;;;;;;;;;;;;;;;;;;5036658;28;8492;-85
2022/10/27 05:07:10;;;;;;;;;;;;;;;;;;5036668;28;6886;-85
2022/10/27 05:09:35;;;;;;;;;;;;;;;;;;5036947;28;7949;-86
2022/10/27 05:12:01;;;;;;;;;;;;;;;;;;5037039;28;7144;-86
2022/10/27 05:14:26;;;;;;;;;;;;;;;;;;5036790;28;7051;-85
2022/10/27 05:16:51;;;;;;;;;;;;;;;;;;5036845;28;8333;-86
2022/10/27 05:19:17;;;;;;;;;;;;;;;;;;5038769;28;8397;-86
2022/10/27 05:21:42;;;;;;;;;;;;;;;;;;5036494;28;7244;-88
2022/10/27 05:24:08;;;;;;;;;;;;;;;;;;5036207;28;7003;-86
2022/10/27 05:26:33;;;;;;;;;;;;;;;;;;5035763;28;6995;-87
2022/10/27 05:28:59;;;;;;;;;;;;;;;;;;5036653;28;7123;-87
2022/10/27 05:31:25;;;;;;;;;;;;;;;;;;5034674;28;8376;-84
2022/10/27 05:33:50;;;;;;;;;;;;;;;;;;5035925;28;8400;-85
2022/10/27 05:36:15;;;;;;;;;;;;;;;;;;5040386;28;7336;-86
2022/10/27 05:38:44;;;;;;;;;;;;;;;;;;5040031;28;8365;-86
2022/10/27 05:41:09;;;;;;;;;;;;;;;;;;5040445;28;8569;-86
2022/10/27 05:43:35;;;;;;;;;;;;;;;;;;5040360;28;8971;-87
2022/10/27 05:46:00;;;;;;;;;;;;;;;;;;5040189;28;7052;-85
2022/10/27 05:48:26;;;;;;;;;;;;;;;;;;5039570;28;8352;-87
2022/10/27 05:50:53;;;;;;;;;;;;;;;;;;5033536;28;7151;-87
2022/10/27 05:53:19;;;;;;;;;;;;;;;;;;5020711;28;7090;-86
2022/10/27 05:55:44;;;;;;;;;;;;;;;;;;5015005;28;8424;-85
2022/10/27 05:58:10;;;;;;;;;;;;;;;;;;5000516;28;8374;-88
2022/10/27 06:00:37;;;;;;;;;;;;;;;;;;5000014;28;8372;-87
2022/10/27 06:03:04;;;;;;;;;;;;;;;;;;5000846;28;8422;-86
2022/10/27 06:05:31;;;;;;;;;;;;;;;;;;5007515;28;8411;-87
2022/10/27 06:07:57;;;;;;;;;;;;;;;;;;5019615;28;8645;-86
2022/10/27 06:10:23;;;;;;;;;;;;;;;;;;5019347;28;6834;-89
2022/10/27 06:12:49;;;;;;;;;;;;;;;;;;5015268;28;8660;-87
2022/10/27 06:15:15;;;;;;;;;;;;;;;;;;5014861;28;7246;-87
2022/10/27 06:17:40;;;;;;;;;;;;;;;;;;5024032;28;8419;-86
2022/10/27 06:20:06;;;;;;;;;;;;;;;;;;5019860;28;7232;-87
2022/10/27 06:22:32;;;;;;;;;;;;;;;;;;5020203;28;8368;-87
2022/10/27 06:24:57;;;;;;;;;;;;;;;;;;5019334;28;7008;-87
2022/10/27 06:27:23;;;;;;;;;;;;;;;;;;5036283;28;8404;-87
2022/10/27 06:29:49;;;;;;;;;;;;;;;;;;5036796;28;8450;-87
2022/10/27 06:32:14;;;;;;;;;;;;;;;;;;5036336;28;8479;-87
2022/10/27 06:34:39;;;;;;;;;;;;;;;;;;5036395;28;8581;-88
2022/10/27 06:37:05;;;;;;;;;;;;;;;;;;5036948;28;7214;-86
2022/10/27 06:39:31;;;;;;;;;;;;;;;;;;5035922;28;7143;-88
2022/10/27 06:41:57;;;;;;;;;;;;;;;;;;5036216;28;8453;-88
2022/10/27 06:44:23;;;;;;;;;;;;;;;;;;5035964;28;7094;-87
2022/10/27 06:46:49;;;;;;;;;;;;;;;;;;5035040;28;8495;-87
2022/10/27 06:49:14;;;;;;;;;;;;;;;;;;5035683;28;7078;-87
2022/10/27 06:51:40;;;;;;;;;;;;;;;;;;5036029;28;8404;-87
2022/10/27 06:54:05;;;;;;;;;;;;;;;;;;5035803;28;8969;-88
2022/10/27 06:56:31;;;;;;;;;;;;;;;;;;5047416;28;8388;-88
2022/10/27 06:58:56;;;;;;;;;;;;;;;;;;5055580;28;8691;-86
2022/10/27 07:01:22;;;;;;;;;;;;;;;;;;5055143;28;8788;-85
2022/10/27 07:03:49;;;;;;;;;;;;;;;;;;5055974;28;7001;-89
2022/10/27 07:06:14;;;;;;;;;;;;;;;;;;5055743;28;8405;-87
2022/10/27 07:08:40;;;;;;;;;;;;;;;;;;5055312;28;7346;-87
2022/10/27 07:11:05;;;;;;;;;;;;;;;;;;5055580;28;8392;-88
2022/10/27 07:13:31;;;;;;;;;;;;;;;;;;5057051;28;8389;-83
2022/10/27 07:15:56;;;;;;;;;;;;;;;;;;5055650;28;8565;-87
2022/10/27 07:18:22;;;;;;;;;;;;;;;;;;5054942;28;8359;-87
2022/10/27 07:20:48;;;;;;;;;;;;;;;;;;5055537;28;7188;-87
2022/10/27 07:23:14;;;;;;;;;;;;;;;;;;5055351;28;8569;-85
2022/10/27 07:25:40;;;;;;;;;;;;;;;;;;5054728;28;8447;-87
2022/10/27 07:28:05;;;;;;;;;;;;;;;;;;5054396;28;6996;-87
2022/10/27 07:30:33;;;;;;;;;;;;;;;;;;5054262;28;7025;-77
2022/10/27 07:32:59;;;;;;;;;;;;;;;;;;5054867;28;8693;-71
2022/10/27 07:35:25;;;;;;;;;;;;;;;;;;5037802;28;6821;-75
2022/10/27 07:37:51;;;;;;;;;;;;;;;;;;5037567;28;7209;-87
2022/10/27 07:40:18;;;;;;;;;;;;;;;;;;5038264;28;6998;-87
2022/10/27 07:42:45;;;;;;;;;;;;;;;;;;5038654;28;7153;-86
2022/10/27 07:45:11;;;;;;;;;;;;;;;;;;5037963;28;7146;-86
2022/10/27 07:47:37;;;;;;;;;;;;;;;;;;5038112;28;8399;-85
2022/10/27 07:50:02;;;;;;;;;;;;;;;;;;5037415;28;7068;-87
2022/10/27 07:52:28;;;;;;;;;;;;;;;;;;5033645;28;8370;-86
2022/10/27 07:54:53;;;;;;;;;;;;;;;;;;5037622;28;6987;-88
2022/10/27 07:57:19;;;;;;;;;;;;;;;;;;5035551;28;8347;-87
2022/10/27 07:59:44;;;;;;;;;;;;;;;;;;5036681;28;8406;-87
2022/10/27 08:02:10;;;;;;;;;;;;;;;;;;5037213;28;8471;-87
2022/10/27 08:04:35;;;;;;;;;;;;;;;;;;5037773;28;6995;-87
2022/10/27 08:07:01;;;;;;;;;;;;;;;;;;5036787;28;7094;-87
2022/10/27 08:09:26;;;;;;;;;;;;;;;;;;5036648;28;8266;-85
2022/10/27 08:11:52;;;;;;;;;;;;;;;;;;5033613;28;8293;-87
2022/10/27 08:14:18;;;;;;;;;;;;;;;;;;5035785;28;8493;-87
2022/10/27 08:16:44;;;;;;;;;;;;;;;;;;5032910;28;7381;-87
2022/10/27 08:19:10;;;;;;;;;;;;;;;;;;5033718;28;8503;-87
2022/10/27 08:21:35;;;;;;;;;;;;;;;;;;5028242;28;8485;-84
2022/10/27 08:24:01;;;;;;;;;;;;;;;;;;5036545;28;8308;-87
2022/10/27 08:26:26;;;;;;;;;;;;;;;;;;5036919;28;7026;-86
2022/10/27 08:28:52;;;;;;;;;;;;;;;;;;5035870;28;7293;-86
2022/10/27 08:31:17;;;;;;;;;;;;;;;;;;5037666;28;8304;-90
2022/10/27 08:33:43;;;;;;;;;;;;;;;;;;5040154;28;7227;-85
2022/10/27 08:36:10;;;;;;;;;;;;;;;;;;5037915;28;8298;-85
2022/10/27 08:38:37;;;;;;;;;;;;;;;;;;5037430;28;8327;-89
2022/10/27 08:41:21;;;;;;;;;;;;;;;;;;5041635;28;7031;-89
2022/10/27 08:43:50;;;;;;;;;;;;;;;;;;5048411;28;7063;-88
2022/10/27 08:46:16;;;;;;;;;;;;;;;;;;5047569;28;7350;-84
2022/10/27 08:48:43;;;;;;;;;;;;;;;;;;5046545;28;7004;-85
2022/10/27 08:51:15;;;;;;;;;;;;;;;;;;5037068;28;7179;-88
2022/10/27 08:53:44;;;;;;;;;;;;;;;;;;5036496;28;8488;-86
2022/10/27 08:56:11;;;;;;;;;;;;;;;;;;5036466;28;7199;-85
2022/10/27 08:58:38;;;;;;;;;;;;;;;;;;5052750;28;7096;-89
2022/10/27 09:01:25;;;;;;;;;;;;;;;;;;5053239;28;7467;-89
2022/10/27 09:04:13;;;;;;;;;;;;;;;;;;5053624;28;7161;-87
2022/10/27 09:06:45;;;;;;;;;;;;;;;;;;5038535;28;8443;-86
2022/10/27 09:09:30;;;;;;;;;;;;;;;;;;5035826;28;8467;-90
2022/10/27 09:12:15;;;;;;;;;;;;;;;;;;5003283;28;7243;-87
2022/10/27 09:14:52;;;;;;;;;;;;;;;;;;5037076;28;8453;-87
2022/10/27 09:17:24;;;;;;;;;;;;;;;;;;5040665;28;7228;-84
2022/10/27 09:19:55;;;;;;;;;;;;;;;;;;5064380;28;7167;-84
2022/10/27 09:22:24;;;;;;;;;;;;;;;;;;5063216;28;8640;-84
2022/10/27 09:24:57;;;;;;;;;;;;;;;;;;5064356;28;6845;-86
2022/10/27 09:27:23;;;;;;;;;;;;;;;;;;5062415;28;7052;-86
2022/10/27 09:29:58;;;;;;;;;;;;;;;;;;5061575;28;6832;-87
2022/10/27 09:32:41;;;;;;;;;;;;;;;;;;;;;
2022/10/27 09:38:14;;;;;;;;;;;;;;;;;;5059547;28;6819;-87
2022/10/27 09:40:41;;;;;;;;;;;;;;;;;;5046077;28;8321;-86
2022/10/27 09:43:09;;;;;;;;;;;;;;;;;;5047919;28;8454;-84
2022/10/27 09:45:34;;;;;;;;;;;;;;;;;;5037070;28;7005;-89
2022/10/27 09:48:06;;;;;;;;;;;;;;;;;;5035577;28;7137;-89
2022/10/27 09:50:35;;;;;;;;;;;;;;;;;;5036044;28;7231;-87
2022/10/27 09:53:01;;;;;;;;;;;;;;;;;;5033615;28;8347;-88
2022/10/27 09:55:47;;;;;;;;;;;;;;;;;;5034083;28;8740;-88
2022/10/27 09:58:12;;;;;;;;;;;;;;;;;;5014579;28;6835;-89
2022/10/27 10:00:38;;;;;;;;;;;;;;;;;;5016515;28;7023;-89
2022/10/27 10:03:09;;;;;;;;;;;;;;;;;;5015774;28;8320;-88
2022/10/27 10:05:36;;;;;;;;;;;;;;;;;;5016536;28;7422;-88
2022/10/27 10:08:21;;;;;;;;;;;;;;;;;;5015982;28;6848;-79
2022/10/27 10:11:10;;;;;;;;;;;;;;;;;;5016059;28;7235;-77
2022/10/27 10:13:40;;;;;;;;;;;;;;;;;;5011390;28;8617;-81
2022/10/27 10:16:08;;;;;;;;;;;;;;;;;;5011927;28;7055;-89
2022/10/27 10:18:35;;;;;;;;;;;;;;;;;;5013276;28;8421;-88
2022/10/27 10:21:11;;;;;;;;;;;;;;;;;;5013435;28;7420;-87
2022/10/27 10:23:40;;;;;;;;;;;;;;;;;;5030874;28;9386;-83
2022/10/27 10:26:15;;;;;;;;;;;;;;;;;;5020410;28;8442;-90
2022/10/27 10:28:43;;;;;;;;;;;;;;;;;;5020644;28;8700;-89
2022/10/27 10:31:11;;;;;;;;;;;;;;;;;;5001775;28;8509;-87
2022/10/27 10:33:43;;;;;;;;;;;;;;;;;;5001707;28;8451;-90
2022/10/27 10:36:15;;;;;;;;;;;;;;;;;;5040672;28;7199;-85
2022/10/27 10:38:49;;;;;;;;;;;;;;;;;;5044775;28;7173;-89
2022/10/27 10:41:23;;;;;;;;;;;;;;;;;;5047222;28;7084;-88
2022/10/27 10:44:08;;;;;;;;;;;;;;;;;;5048550;28;7055;-83
2022/10/27 10:46:40;;;;;;;;;;;;;;;;;;5047108;28;7065;-88
2022/10/27 10:49:30;;;;;;;;;;;;;;;;;;5045757;28;6859;-85
2022/10/27 10:52:19;;;;;;;;;;;;;;;;;;5041630;28;7181;-88
2022/10/27 10:54:51;;;;;;;;;;;;;;;;;;4992061;28;7214;-89
2022/10/27 10:57:36;;;;;;;;;;;;;;;;;;4986388;28;7022;-86
2022/10/27 11:00:05;;;;;;;;;;;;;;;;;;5020768;28;7080;-84
2022/10/27 11:02:32;;;;;;;;;;;;;;;;;;5000146;28;6894;-85
2022/10/27 11:05:10;;;;;;;;;;;;;;;;;;4975941;28;7096;-88
2022/10/27 11:07:37;;;;;;;;;;;;;;;;;;4986952;28;7097;-90
2022/10/27 11:10:23;;;;;;;;;;;;;;;;;;4980253;28;7000;-85
2022/10/27 11:12:57;;;;;;;;;;;;;;;;;;4982147;28;6874;-89
2022/10/27 11:15:28;;;;;;;;;;;;;;;;;;4963145;28;8423;-85
2022/10/27 11:18:00;;;;;;;;;;;;;;;;;;4959154;28;7030;-90
2022/10/27 11:20:37;;;;;;;;;;;;;;;;;;4978897;28;8325;-85
2022/10/27 11:23:11;;;;;;;;;;;;;;;;;;4988410;28;7036;-83
2022/10/27 11:25:37;;;;;;;;;;;;;;;;;;4989716;28;7268;-83
2022/10/27 11:28:05;;;;;;;;;;;;;;;;;;4988203;28;6985;-84
2022/10/27 11:30:36;;;;;;;;;;;;;;;;;;4967408;28;8848;-84
2022/10/27 11:33:04;;;;;;;;;;;;;;;;;;4996121;28;7072;-83
2022/10/27 11:35:45;;;;;;;;;;;;;;;;;;4984134;28;8749;-83
2022/10/27 11:38:22;;;;;;;;;;;;;;;;;;4987414;28;7211;-83
2022/10/27 11:40:53;;;;;;;;;;;;;;;;;;4987158;28;7153;-87
2022/10/27 11:43:28;;;;;;;;;;;;;;;;;;4981872;28;8482;-88
2022/10/27 11:45:56;;;;;;;;;;;;;;;;;;4994120;28;7080;-89
2022/10/27 11:48:42;;;;;;;;;;;;;;;;;;5006994;28;8714;-92
2022/10/27 11:51:16;;;;;;;;;;;;;;;;;;5001624;28;8371;-89
2022/10/27 11:53:42;;;;;;;;;;;;;;;;;;5000576;28;8463;-86
2022/10/27 11:56:25;;;;;;;;;;;;;;;;;;5007882;28;7283;-87
2022/10/27 11:58:50;;;;;;;;;;;;;;;;;;5020279;28;8327;-89
2022/10/27 12:01:22;;;;;;;;;;;;;;;;;;5041768;28;8299;-85
2022/10/27 12:04:06;;;;;;;;;;;;;;;;;;5027074;28;8320;-89
2022/10/27 12:06:42;;;;;;;;;;;;;;;;;;5022684;28;7047;-87
2022/10/27 12:09:40;;;;;;;;;;;;;;;;;;5027883;28;7538;-90
2022/10/27 12:12:13;;;;;;;;;;;;;;;;;;4988530;28;7126;-90
2022/10/27 12:14:58;;;;;;;;;;;;;;;;;;5043400;28;6906;-86
2022/10/27 12:17:47;;;;;;;;;;;;;;;;;;5042565;28;8338;-89
2022/10/27 12:20:16;;;;;;;;;;;;;;;;;;5062576;28;7019;-91
2022/10/27 12:22:47;;;;;;;;;;;;;;;;;;5041848;28;8321;-89
2022/10/27 12:25:34;;;;;;;;;;;;;;;;;;5049923;28;7209;-84
2022/10/27 12:28:04;;;;;;;;;;;;;;;;;;5065910;28;8348;-83
2022/10/27 12:30:31;;;;;;;;;;;;;;;;;;5049403;28;8471;-84
2022/10/27 12:32:56;;;;;;;;;;;;;;;;;;5049593;28;8512;-84
2022/10/27 12:35:43;;;;;;;;;;;;;;;;;;5054121;28;7173;-85
2022/10/27 12:38:24;;;;;;;;;;;;;;;;;;5028534;28;8452;-84
2022/10/27 12:41:06;;;;;;;;;;;;;;;;;;5027818;28;8430;-84
2022/10/27 12:43:42;;;;;;;;;;;;;;;;;;5027304;28;8448;-86
2022/10/27 12:46:31;;;;;;;;;;;;;;;;;;5022257;28;8424;-84
2022/10/27 12:49:16;;;;;;;;;;;;;;;;;;5023723;28;8438;-87
2022/10/27 12:51:58;;;;;;;;;;;;;;;;;;5039611;28;7077;-90
2022/10/27 12:54:41;;;;;;;;;;;;;;;;;;5023356;28;8457;-86
2022/10/27 12:57:29;;;;;;;;;;;;;;;;;;5006870;28;8432;-87
2022/10/27 13:00:12;;;;;;;;;;;;;;;;;;5019530;28;8395;-88
2022/10/27 13:02:53;;;;;;;;;;;;;;;;;;5020370;28;9184;-88
2022/10/27 13:05:18;;;;;;;;;;;;;;;;;;5021716;28;7205;-87
2022/10/27 13:07:54;;;;;;;;;;;;;;;;;;5020963;28;8468;-89
2022/10/27 13:10:33;;;;;;;;;;;;;;;;;;5019013;28;8525;-84
2022/10/27 13:13:08;;;;;;;;;;;;;;;;;;5021684;28;6913;-87
2022/10/27 13:15:49;;;;;;;;;;;;;;;;;;5021089;28;8637;-90
2022/10/27 13:18:18;;;;;;;;;;;;;;;;;;5018553;28;8503;-89
2022/10/27 13:20:50;;;;;;;;;;;;;;;;;;5019636;28;8465;-85
2022/10/27 13:23:28;;;;;;;;;;;;;;;;;;5026846;28;8641;-89
2022/10/27 13:26:14;;;;;;;;;;;;;;;;;;5019802;28;8521;-75
2022/10/27 13:28:44;;;;;;;;;;;;;;;;;;5015339;28;8432;-89
2022/10/27 13:31:21;;;;;;;;;;;;;;;;;;5017407;28;8449;-88
2022/10/27 13:34:05;;;;;;;;;;;;;;;;;;5017177;28;7083;-88
2022/10/27 13:36:31;;;;;;;;;;;;;;;;;;5032790;28;9255;-89
2022/10/27 13:39:12;;;;;;;;;;;;;;;;;;5016169;28;8796;-89
2022/10/27 13:41:55;;;;;;;;;;;;;;;;;;4997674;28;8450;-89
2022/10/27 13:44:26;;;;;;;;;;;;;;;;;;5003161;28;7083;-85
2022/10/27 13:47:09;;;;;;;;;;;;;;;;;;5019040;28;8336;-85
2022/10/27 13:49:38;;;;;;;;;;;;;;;;;;4997471;28;7374;-81
2022/10/27 13:52:18;;;;;;;;;;;;;;;;;;4997446;28;8638;-89
2022/10/27 13:54:52;;;;;;;;;;;;;;;;;;4996779;28;7269;-83
2022/10/27 13:57:41;;;;;;;;;;;;;;;;;;5017856;28;8640;-89
2022/10/27 14:00:15;;;;;;;;;;;;;;;;;;5020332;28;9244;-86
2022/10/27 14:03:01;;;;;;;;;;;;;;;;;;5019795;28;7051;-88
2022/10/27 14:05:30;;;;;;;;;;;;;;;;;;5021125;28;8413;-88
2022/10/27 14:07:57;;;;;;;;;;;;;;;;;;5020230;28;8445;-89
2022/10/27 14:10:24;;;;;;;;;;;;;;;;;;5027073;28;8828;-90
2022/10/27 14:12:50;;;;;;;;;;;;;;;;;;5036171;28;8848;-85
2022/10/27 14:15:15;;;;;;;;;;;;;;;;;;5029437;28;8854;-83
2022/10/27 14:17:43;;;;;;;;;;;;;;;;;;5008962;28;7067;-88
2022/10/27 14:20:26;;;;;;;;;;;;;;;;;;5020033;28;7211;-89
2022/10/27 14:22:57;;;;;;;;;;;;;;;;;;5019643;28;8850;-90
2022/10/27 14:25:27;;;;;;;;;;;;;;;;;;5019962;28;8486;-81
2022/10/27 14:28:13;;;;;;;;;;;;;;;;;;5019724;28;7185;-87
2022/10/27 14:30:39;;;;;;;;;;;;;;;;;;5019209;28;7385;-89
2022/10/27 14:33:18;;;;;;;;;;;;;;;;;;5019601;28;8502;-87
2022/10/27 14:35:43;;;;;;;;;;;;;;;;;;5034927;28;7171;-88
2022/10/27 14:38:19;;;;;;;;;;;;;;;;;;5036415;28;8603;-90
2022/10/27 14:40:46;;;;;;;;;;;;;;;;;;5027023;28;8754;-89
2022/10/27 14:43:24;;;;;;;;;;;;;;;;;;5019308;28;8478;-89
2022/10/27 14:45:59;;;;;;;;;;;;;;;;;;5019953;28;7184;-89
2022/10/27 14:48:30;;;;;;;;;;;;;;;;;;5019342;28;8732;-89
2022/10/27 14:50:59;;;;;;;;;;;;;;;;;;5019860;28;8766;-90
2022/10/27 14:53:35;;;;;;;;;;;;;;;;;;5019131;28;7052;-90
2022/10/27 14:56:03;;;;;;;;;;;;;;;;;;5019049;28;8671;-90
2022/10/27 14:58:29;;;;;;;;;;;;;;;;;;5018642;28;7082;-90
2022/10/27 15:00:54;;;;;;;;;;;;;;;;;;5018456;28;8487;-88
2022/10/27 15:03:19;;;;;;;;;;;;;;;;;;5018560;28;8544;-87
2022/10/27 15:16:46;;;;;;;;;;;;;;;;;;5051812;28;7173;-67
2022/10/27 15:22:23;;;;;;;;;;;;;;;;;;5031571;28;6741;-67
2022/10/27 15:24:50;;;;;;;;;;;;;;;;;;5031371;28;7073;-67
2022/10/27 15:27:37;;;;;;;;;;;;;;;;;;5031216;28;7218;-66
2022/10/27 15:30:05;;;;;;;;;;;;;;;;;;5031695;28;7040;-67
2022/10/27 15:32:40;;;;;;;;;;;;;;;;;;5031805;28;6957;-67
2022/10/27 15:35:26;;;;;;;;;;;;;;;;;;5030559;28;8538;-67
2022/10/27 15:37:51;;;;;;;;;;;;;;;;;;5030211;28;7184;-67
2022/10/27 15:40:36;;;;;;;;;;;;;;;;;;5031061;28;7152;-67
2022/10/27 15:46:28;;;;;;;;;;;;;;;;;;5031046;28;6941;-67
2022/10/27 15:49:13;;;;;;;;;;;;;;;;;;5031518;28;7419;-67
2022/10/27 15:51:45;;;;;;;;;;;;;;;;;;5030910;28;7956;-66
2022/10/27 15:54:29;;;;;;;;;;;;;;;;;;5031141;28;7091;-67
2022/10/27 15:57:23;;;;;;;;;;;;;;;;;;5031263;28;7243;-67
2022/10/27 16:00:07;;;;;;;;;;;;;;;;;;5030872;28;7050;-67
2022/10/27 16:02:34;;;;;;;;;;;;;;;;;;5030847;28;7048;-67
2022/10/27 16:05:18;;;;;;;;;;;;;;;;;;5030434;28;7591;-67
2022/10/27 16:07:53;;;;;;;;;;;;;;;;;;5030992;28;6849;-67
2022/10/27 16:13:50;;;;;;;;;;;;;;;;;;5030663;28;6958;-67
2022/10/27 16:16:16;;;;;;;;;;;;;;;;;;5041800;28;7200;-67
2022/10/27 16:19:02;;;;;;;;;;;;;;;;;;5023193;28;7115;-67
2022/10/27 16:21:29;;;;;;;;;;;;;;;;;;5017502;28;6975;-66
2022/10/27 16:24:10;;;;;;;;;;;;;;;;;;5017507;28;6994;-66
2022/10/27 16:26:36;;;;;;;;;;;;;;;;;;5017699;28;7175;-67
2022/10/27 16:35:15;;;;;;;;;;;;;;;;;;5017124;28;6706;-67
2022/10/27 16:37:40;;;;;;;;;;;;;;;;;;5017609;28;7211;-67
2022/10/27 16:40:11;;;;;;;;;;;;;;;;;;5016869;28;7201;-66
2022/10/27 16:42:40;;;;;;;;;;;;;;;;;;5017213;28;7158;-67
2022/10/27 16:45:10;;;;;;;;;;;;;;;;;;5016808;28;7498;-67
2022/10/27 16:47:36;;;;;;;;;;;;;;;;;;5017095;28;7389;-67
2022/10/27 16:53:23;;;;;;;;;;;;;;;;;;5016917;28;6700;-67
2022/10/27 16:55:59;;;;;;;;;;;;;;;;;;5016837;28;7231;-67
2022/10/27 17:01:27;;;;;;;;;;;;;;;;;;5016512;28;6748;-67
2022/10/27 17:04:09;;;;;;;;;;;;;;;;;;5016794;28;7103;-66
2022/10/27 17:06:35;;;;;;;;;;;;;;;;;;5016884;28;7519;-66
2022/10/27 17:09:34;;;;;;;;;;;;;;;;;;5016595;28;6971;-67
2022/10/27 17:12:00;;;;;;;;;;;;;;;;;;5016298;28;7213;-66
2022/10/27 17:14:26;;;;;;;;;;;;;;;;;;5015698;28;6978;-66
2022/10/27 17:16:51;;;;;;;;;;;;;;;;;;5016296;28;7429;-66
2022/10/27 17:19:34;;;;;;;;;;;;;;;;;;5016256;28;7080;-66
2022/10/27 17:21:59;;;;;;;;;;;;;;;;;;5016531;28;7261;-66
2022/10/27 17:36:41;;;;;;;;;;;;;;;;;;5016096;28;6709;-66
2022/10/27 17:39:07;;;;;;;;;;;;;;;;;;5016154;28;7177;-66
2022/10/27 17:41:33;;;;;;;;;;;;;;;;;;5016075;28;7350;-66
2022/10/27 17:43:59;;;;;;;;;;;;;;;;;;5016171;28;7137;-66
2022/10/27 17:49:27;;;;;;;;;;;;;;;;;;5015678;28;6985;-66
2022/10/27 17:51:56;;;;;;;;;;;;;;;;;;5015807;28;7089;-66
2022/10/27 17:54:21;;;;;;;;;;;;;;;;;;5015849;28;7217;-66
2022/10/27 17:56:47;;;;;;;;;;;;;;;;;;5015276;28;6996;-66
2022/10/27 17:59:21;;;;;;;;;;;;;;;;;;5015690;28;7048;-66
2022/10/27 18:01:48;;;;;;;;;;;;;;;;;;5015603;28;6987;-66
2022/10/27 18:04:21;;;;;;;;;;;;;;;;;;5015289;28;7413;-67
2022/10/27 18:06:46;;;;;;;;;;;;;;;;;;5015437;28;7067;-66
2022/10/27 18:09:12;;;;;;;;;;;;;;;;;;5015547;28;7360;-67
2022/10/27 18:11:48;;;;;;;;;;;;;;;;;;5015488;28;7048;-66
2022/10/27 18:14:16;;;;;;;;;;;;;;;;;;5016345;28;6922;-66